createdAt,value
2023-02-19T03:06:54.839Z,10.18
2023-02-19T03:09:30.410Z,9.43
2023-02-19T03:12:21.253Z,9.70
2023-02-19T03:15:10.090Z,9.05
2023-02-19T03:18:15.269Z,9.88
2023-02-19T03:20:47.487Z,9.27
2023-02-19T03:23:15.751Z,8.35
2023-02-19T03:26:01.855Z,9.30
2023-02-19T03:29:03.896Z,8.65
2023-02-19T03:31:33.474Z,9.00
2023-02-19T03:34:06.282Z,8.65
2023-02-19T03:36:38.259Z,8.82
2023-02-19T03:39:07.972Z,8.13
2023-02-19T03:41:55.740Z,8.23
2023-02-19T03:44:28.017Z,8.05
2023-02-19T03:47:05.378Z,7.88
2023-02-19T03:49:49.977Z,8.30
2023-02-19T03:52:39.617Z,8.45
2023-02-19T03:55:10.231Z,8.93
2023-02-19T03:57:45.006Z,8.85
2023-02-19T04:00:32.734Z,8.82
2023-02-19T04:03:18.272Z,8.95
2023-02-19T04:05:50.278Z,9.35
2023-02-19T04:10:53.116Z,9.30
2023-02-19T04:13:45.094Z,8.82
2023-02-19T04:16:18.770Z,8.75
2023-02-19T04:18:49.073Z,8.70
2023-02-19T04:21:16.969Z,8.30
2023-02-19T04:23:45.880Z,8.95
2023-02-19T04:26:15.036Z,8.85
2023-02-19T04:28:44.348Z,7.65
2023-02-19T04:31:12.667Z,8.02
2023-02-19T04:33:40.505Z,7.60
2023-02-19T04:36:11.043Z,8.07
2023-02-19T04:38:39.261Z,7.90
2023-02-19T04:41:06.982Z,7.93
2023-02-19T04:43:34.816Z,7.32
2023-02-19T04:46:03.103Z,7.28
2023-02-19T04:48:32.078Z,6.70
2023-02-19T04:50:59.776Z,7.00
2023-02-19T04:53:27.671Z,7.05
2023-02-19T04:55:55.350Z,6.90
2023-02-19T04:58:23.129Z,6.85
2023-02-19T05:00:53.861Z,7.30
2023-02-19T05:03:21.638Z,6.68
2023-02-19T05:05:49.229Z,6.50
2023-02-19T05:08:17.016Z,6.35
2023-02-19T05:10:44.625Z,6.63
2023-02-19T05:13:12.318Z,6.50
2023-02-19T05:15:40.204Z,6.10
2023-02-19T05:18:07.970Z,6.20
2023-02-19T05:20:36.743Z,6.18
2023-02-19T05:23:04.443Z,5.93
2023-02-19T05:25:32.208Z,6.72
2023-02-19T05:28:17.113Z,6.13
2023-02-19T05:30:53.202Z,6.13
2023-02-19T05:33:23.070Z,6.53
2023-02-19T05:35:53.281Z,6.05
2023-02-19T05:38:21.521Z,6.53
2023-02-19T05:40:49.597Z,6.38
2023-02-19T05:43:17.572Z,6.43
2023-02-19T05:45:45.300Z,6.70
2023-02-19T05:48:13.067Z,7.03
2023-02-19T05:50:41.016Z,6.70
2023-02-19T05:53:14.778Z,6.30
2023-02-19T05:55:42.504Z,7.03
2023-02-19T05:58:10.266Z,6.82
2023-02-19T06:00:37.912Z,6.18
2023-02-19T06:03:05.574Z,7.65
2023-02-19T06:05:33.243Z,6.70
2023-02-19T06:08:01.197Z,6.85
2023-02-19T06:10:28.907Z,6.80
2023-02-19T06:12:56.544Z,6.63
2023-02-19T06:15:24.326Z,6.82
2023-02-19T06:17:52.090Z,7.20
2023-02-19T06:20:19.933Z,7.57
2023-02-19T06:22:50.368Z,6.22
2023-02-19T06:25:18.999Z,6.50
2023-02-19T06:27:46.677Z,7.07
2023-02-19T06:30:14.480Z,6.72
2023-02-19T06:32:42.707Z,7.10
2023-02-19T06:35:10.624Z,7.25
2023-02-19T06:37:38.339Z,7.20
2023-02-19T06:40:06.559Z,6.50
2023-02-19T06:42:34.299Z,7.50
2023-02-19T06:45:02.119Z,7.38
2023-02-19T06:47:33.452Z,7.43
2023-02-19T06:50:01.207Z,7.07
2023-02-19T06:52:28.856Z,6.72
2023-02-19T06:54:56.587Z,6.93
2023-02-19T06:57:24.460Z,7.13
2023-02-19T06:59:52.287Z,7.13
2023-02-19T07:02:19.994Z,6.80
2023-02-19T07:04:47.717Z,6.80
2023-02-19T07:07:15.398Z,6.60
2023-02-19T07:09:43.149Z,6.32
2023-02-19T07:12:10.754Z,6.93
2023-02-19T07:14:38.458Z,6.60
2023-02-19T07:17:06.255Z,6.53
2023-02-19T07:19:35.895Z,6.68
2023-02-19T07:22:03.573Z,6.55
2023-02-19T07:24:31.501Z,6.80
2023-02-19T07:26:59.212Z,6.63
2023-02-19T07:29:27.277Z,6.20
2023-02-19T07:31:55.405Z,6.82
2023-02-19T07:34:23.256Z,6.60
2023-02-19T07:36:50.954Z,6.30
2023-02-19T07:39:18.823Z,6.32
2023-02-19T07:41:46.444Z,6.63
2023-02-19T07:44:26.447Z,5.88
2023-02-19T07:46:54.096Z,5.80
2023-02-19T07:49:21.757Z,5.85
2023-02-19T07:51:49.496Z,6.05
2023-02-19T07:54:17.233Z,5.80
2023-02-19T07:56:45.642Z,5.90
2023-02-19T07:59:13.699Z,5.93
2023-02-19T08:01:59.958Z,6.05
2023-02-19T08:04:27.696Z,5.90
2023-02-19T08:06:55.556Z,6.22
2023-02-19T08:09:23.412Z,10.38
2023-02-19T08:12:10.379Z,14.77
2023-02-19T08:14:38.306Z,15.75
2023-02-19T08:17:10.013Z,15.27
2023-02-19T08:19:37.755Z,16.02
2023-02-19T08:22:05.909Z,14.35
2023-02-19T08:24:34.155Z,14.65
2023-02-19T08:27:02.046Z,15.00
2023-02-19T08:29:29.928Z,13.88
2023-02-19T08:31:57.688Z,13.23
2023-02-19T08:34:25.599Z,12.57
2023-02-19T08:36:53.281Z,12.60
2023-02-19T08:39:21.327Z,11.40
2023-02-19T08:41:48.992Z,11.85
2023-02-19T08:44:16.833Z,11.45
2023-02-19T08:46:44.894Z,11.55
2023-02-19T08:49:12.564Z,10.05
2023-02-19T08:51:40.304Z,9.90
2023-02-19T08:54:07.979Z,9.88
2023-02-19T08:56:35.701Z,9.20
2023-02-19T08:59:03.341Z,9.60
2023-02-19T09:01:31.220Z,9.25
2023-02-19T09:03:59.192Z,9.73
2023-02-19T09:06:26.972Z,8.85
2023-02-19T09:08:54.794Z,8.32
2023-02-19T09:11:22.491Z,7.90
2023-02-19T09:13:50.213Z,8.27
2023-02-19T09:16:17.877Z,8.30
2023-02-19T09:18:46.055Z,7.40
2023-02-19T09:21:13.929Z,7.50
2023-02-19T09:23:41.784Z,7.07
2023-02-19T09:26:11.660Z,7.55
2023-02-19T09:28:42.066Z,7.65
2023-02-19T09:31:13.825Z,7.15
2023-02-19T09:33:49.106Z,6.38
2023-02-19T09:36:18.781Z,6.53
2023-02-19T09:38:46.739Z,6.15
2023-02-19T09:41:30.135Z,6.38
2023-02-19T09:43:59.080Z,6.15
2023-02-19T09:46:33.767Z,5.93
2023-02-19T09:49:08.419Z,6.32
2023-02-19T09:51:37.579Z,5.85
2023-02-19T09:54:07.038Z,5.65
2023-02-19T09:56:35.059Z,6.07
2023-02-19T09:59:03.087Z,5.43
2023-02-19T10:01:34.232Z,5.07
2023-02-19T10:04:01.951Z,5.25
2023-02-19T10:06:30.432Z,5.10
2023-02-19T10:09:23.960Z,5.22
2023-02-19T10:11:52.279Z,4.82
2023-02-19T10:14:27.643Z,5.38
2023-02-19T10:16:57.501Z,5.63
2023-02-19T10:19:25.363Z,5.20
2023-02-19T10:21:53.099Z,5.55
2023-02-19T10:24:22.385Z,5.05
2023-02-19T10:26:50.703Z,4.65
2023-02-19T10:29:19.891Z,4.85
2023-02-19T10:31:47.838Z,4.65
2023-02-19T10:34:22.426Z,4.90
2023-02-19T10:36:51.782Z,4.75
2023-02-19T10:39:22.409Z,5.15
2023-02-19T10:41:50.973Z,4.80
2023-02-19T10:44:22.277Z,5.03
2023-02-19T10:46:52.443Z,4.80
2023-02-19T10:49:32.330Z,4.30
2023-02-19T10:52:03.078Z,4.75
2023-02-19T10:54:33.171Z,4.47
2023-02-19T10:57:25.492Z,4.85
2023-02-19T10:59:57.855Z,4.97
2023-02-19T11:02:26.270Z,4.70
2023-02-19T11:05:20.013Z,4.13
2023-02-19T11:07:50.857Z,4.20
2023-02-19T11:10:44.492Z,3.95
2023-02-19T11:13:19.914Z,4.07
2023-02-19T11:15:53.434Z,4.00
2023-02-19T11:18:22.895Z,4.10
2023-02-19T11:20:55.946Z,4.03
2023-02-19T11:23:36.861Z,4.00
2023-02-19T11:26:07.992Z,4.10
2023-02-19T11:28:39.942Z,3.90
2023-02-19T11:31:20.122Z,4.57
2023-02-19T11:33:59.998Z,4.35
2023-02-19T11:36:33.601Z,3.83
2023-02-19T11:39:15.841Z,3.88
2023-02-19T11:41:46.679Z,3.92
2023-02-19T11:44:38.193Z,3.80
2023-02-19T11:47:25.865Z,4.10
2023-02-19T11:50:21.851Z,3.70
2023-02-19T11:53:01.910Z,3.60
2023-02-19T11:55:35.926Z,3.38
2023-02-19T11:58:25.486Z,4.00
2023-02-19T12:01:05.104Z,3.38
2023-02-19T12:03:41.786Z,3.40
2023-02-19T12:06:12.631Z,3.30
2023-02-19T12:08:43.204Z,3.30
2023-02-19T12:11:29.367Z,3.42
2023-02-19T12:14:25.691Z,3.90
2023-02-19T12:17:05.561Z,3.83
2023-02-19T12:19:57.770Z,3.88
2023-02-19T12:22:33.874Z,3.20
2023-02-19T12:25:23.953Z,3.10
2023-02-19T12:28:05.280Z,3.35
2023-02-19T12:31:11.786Z,3.25
2023-02-19T12:34:12.551Z,3.45
2023-02-19T12:37:01.604Z,3.50
2023-02-19T12:39:55.738Z,3.53
2023-02-19T12:42:50.978Z,3.40
2023-02-19T12:45:27.380Z,3.42
2023-02-19T12:48:02.088Z,3.20
2023-02-19T12:50:31.426Z,3.33
2023-02-19T12:53:03.176Z,3.10
2023-02-19T12:55:36.684Z,2.83
2023-02-19T12:58:06.274Z,2.80
2023-02-19T13:00:39.591Z,2.83
2023-02-19T13:03:24.635Z,3.88
2023-02-19T13:06:15.794Z,4.10
2023-02-19T13:09:06.466Z,3.72
2023-02-19T13:11:43.945Z,3.95
2023-02-19T13:14:14.479Z,3.40
2023-02-19T13:16:47.373Z,3.83
2023-02-19T13:19:15.402Z,3.30
2023-02-19T13:22:03.547Z,3.13
2023-02-19T13:24:37.003Z,3.17
2023-02-19T13:27:08.677Z,3.10
2023-02-19T13:29:54.643Z,3.35
2023-02-19T13:32:48.403Z,3.42
2023-02-19T13:35:40.823Z,2.97
2023-02-19T13:40:42.824Z,3.00
2023-02-19T13:43:37.285Z,3.03
2023-02-19T13:46:14.474Z,2.78
2023-02-19T13:48:44.606Z,2.83
2023-02-19T13:51:19.746Z,3.22
2023-02-19T13:53:50.591Z,2.72
2023-02-19T13:56:31.450Z,2.97
2023-02-19T13:59:03.039Z,3.22
2023-02-19T14:01:50.410Z,2.83
2023-02-19T14:04:40.315Z,2.80
2023-02-19T14:07:09.073Z,2.60
2023-02-19T14:09:40.243Z,2.83
2023-02-19T14:12:08.064Z,3.10
2023-02-19T14:14:45.335Z,2.75
2023-02-19T14:17:40.834Z,2.47
2023-02-19T14:20:17.912Z,2.65
2023-02-19T14:22:50.351Z,2.70
2023-02-19T14:25:35.868Z,2.97
2023-02-19T14:28:09.574Z,2.40
2023-02-19T14:31:11.259Z,2.92
2023-02-19T14:33:44.081Z,2.60
2023-02-19T14:36:33.616Z,2.90
2023-02-19T14:39:05.560Z,2.50
2023-02-19T14:41:34.433Z,2.72
2023-02-19T14:44:02.536Z,2.63
2023-02-19T14:46:38.128Z,2.90
2023-02-19T14:49:12.556Z,2.80
2023-02-19T14:51:44.288Z,2.65
2023-02-19T14:54:18.970Z,3.13
2023-02-19T14:56:52.004Z,2.50
2023-02-19T14:59:26.329Z,2.78
2023-02-19T15:02:03.057Z,2.50
2023-02-19T15:04:37.198Z,2.50
2023-02-19T15:07:09.013Z,2.63
2023-02-19T15:09:40.729Z,2.83
2023-02-19T15:12:13.593Z,2.80
2023-02-19T15:14:41.567Z,2.50
2023-02-19T15:17:15.395Z,2.47
2023-02-19T15:19:43.885Z,2.35
2023-02-19T15:22:20.654Z,2.40
2023-02-19T15:24:48.819Z,2.50
2023-02-19T15:27:22.756Z,2.50
2023-02-19T15:29:53.655Z,2.30
2023-02-19T15:32:26.400Z,2.22
2023-02-19T15:35:02.051Z,2.40
2023-02-19T15:37:33.303Z,2.17
2023-02-19T15:40:04.013Z,2.75
2023-02-19T15:42:34.943Z,2.17
2023-02-19T15:45:25.120Z,2.30
2023-02-19T15:48:09.882Z,2.30
2023-02-19T15:50:42.075Z,2.28
2023-02-19T15:56:04.941Z,2.22
2023-02-19T15:58:40.783Z,2.50
2023-02-19T16:01:29.217Z,2.50
2023-02-19T16:03:57.557Z,2.58
2023-02-19T16:06:26.430Z,2.55
2023-02-19T16:09:06.786Z,2.33
2023-02-19T16:11:35.903Z,2.63
2023-02-19T16:14:25.281Z,2.80
2023-02-19T16:16:56.038Z,2.90
2023-02-19T16:19:28.475Z,2.67
2023-02-19T16:21:57.009Z,2.58
2023-02-19T16:24:54.253Z,2.60
2023-02-19T16:27:42.147Z,2.47
2023-02-19T16:30:25.733Z,2.40
2023-02-19T16:33:35.115Z,2.50
2023-02-19T16:36:30.286Z,2.55
2023-02-19T16:39:03.692Z,2.40
2023-02-19T16:41:31.614Z,2.83
2023-02-19T16:44:01.125Z,2.50
2023-02-19T16:46:29.685Z,2.83
2023-02-19T16:48:57.474Z,2.90
2023-02-19T16:51:26.852Z,2.90
2023-02-19T16:53:54.695Z,3.00
2023-02-19T16:56:23.264Z,2.80
2023-02-19T16:58:51.084Z,2.60
2023-02-19T17:01:18.783Z,2.88
2023-02-19T17:03:47.812Z,2.47
2023-02-19T17:06:16.184Z,2.78
2023-02-19T17:08:44.554Z,2.30
2023-02-19T17:11:14.991Z,2.63
2023-02-19T17:13:45.182Z,3.00
2023-02-19T17:16:27.853Z,2.60
2023-02-19T17:18:55.999Z,3.25
2023-02-19T17:21:26.065Z,2.85
2023-02-19T17:23:54.513Z,2.60
2023-02-19T17:26:25.080Z,2.60
2023-02-19T17:28:52.888Z,2.60
2023-02-19T17:31:20.757Z,2.67
2023-02-19T17:33:48.717Z,2.85
2023-02-19T17:36:30.267Z,3.10
2023-02-19T17:38:59.438Z,2.90
2023-02-19T17:41:27.684Z,2.88
2023-02-19T17:43:55.679Z,2.97
2023-02-19T17:46:26.764Z,3.60
2023-02-19T17:48:55.281Z,3.25
2023-02-19T17:51:23.252Z,3.35
2023-02-19T17:53:50.921Z,3.25
2023-02-19T17:56:21.397Z,4.00
2023-02-19T17:58:50.091Z,3.88
2023-02-19T18:01:17.878Z,4.05
2023-02-19T18:03:46.013Z,4.10
2023-02-19T18:06:13.916Z,3.90
2023-02-19T18:08:52.213Z,4.30
2023-02-19T18:11:22.250Z,4.10
2023-02-19T18:13:51.244Z,4.22
2023-02-19T18:16:19.284Z,4.50
2023-02-19T18:18:47.066Z,4.88
2023-02-19T18:21:15.010Z,4.63
2023-02-19T18:23:42.842Z,4.43
2023-02-19T18:26:11.087Z,4.85
2023-02-19T18:28:39.015Z,5.10
2023-02-19T18:31:07.145Z,4.80
2023-02-19T18:33:35.558Z,4.95
2023-02-19T18:36:04.269Z,5.43
2023-02-19T18:38:31.971Z,5.20
2023-02-19T18:40:59.752Z,5.30
2023-02-19T18:43:27.466Z,5.50
2023-02-19T18:45:55.165Z,5.68
2023-02-19T18:48:22.888Z,5.97
2023-02-19T18:50:50.647Z,5.38
2023-02-19T18:53:18.472Z,5.68
2023-02-19T18:55:46.140Z,5.80
2023-02-19T18:58:13.890Z,5.63
2023-02-19T19:00:41.526Z,5.72
2023-02-19T19:03:09.448Z,6.03
2023-02-19T19:05:37.241Z,5.80
2023-02-19T19:08:05.394Z,5.47
2023-02-19T19:10:33.026Z,5.63
2023-02-19T19:13:00.826Z,5.53
2023-02-19T19:15:28.462Z,5.72
2023-02-19T19:17:56.332Z,5.82
2023-02-19T19:20:24.146Z,5.60
2023-02-19T19:22:53.126Z,5.20
2023-02-19T19:25:23.095Z,5.22
2023-02-19T19:27:51.983Z,5.70
2023-02-19T19:30:20.737Z,6.28
2023-02-19T19:32:49.808Z,6.30
